Seattle Express — A8GU5 — position and weather

sailwx.info

Track history (hours):
 
Tides and Currents Weather Stations Pressure Air Temp Water Temp Dewpoint Dewpoint Depression Visibility Wind Speed Wind Dir Waves Ship Positions

Seattle Express

Last reported at 2014-Aug-01 07:33 UTC. Time now 2014-Aug-01 07:46 UTC.
Position N 53°07' E 004°17'.

Length 264.1 m; beam 32.3 m; draft 12.5 m.

Type: Ship (hazmat cat A). MMSI: 636090860.

Date/timePositionNaut miles runAvg speedWind from/ knotsBaromVisibWave heightAir tempDewpointWater temp
2014-Aug-01 07:33N 53°07' E 004°17'1614.9
2014-Aug-01 06:30N 53°20' E 004°31'1515.4
2014-Aug-01 05:33N 53°30' E 004°48'1817.6
2014-Aug-01 04:33N 53°37' E 005°15'1817.8
2014-Aug-01 03:33N 53°43' E 005°44'1817.6
2014-Aug-01 02:33N 53°48' E 006°12'1716.9
2014-Aug-01 01:33N 53°53' E 006°40'2216.2
2014-Aug-01 00:10N 53°57' E 007°17'1015.7
2014-Jul-31 23:33N 53°59' E 007°33'1412.0
2014-Jul-31 22:23N 53°52' E 007°54'1012.5
2014-Jul-31 21:33N 53°47' E 008°09'1716.5
2014-Jul-31 20:33N 53°36' E 008°30'2 2.2
2014-Jul-31 19:33N 53°35' E 008°32'0 0.0
2014-Jul-31 18:31N 53°35' E 008°32'0 0.0
2014-Jul-31 17:31N 53°35' E 008°32'0 0.0
2014-Jul-31 16:31N 53°35' E 008°32'0 0.0
2014-Jul-31 15:31N 53°35' E 008°32'0 0.0
2014-Jul-31 14:31N 53°35' E 008°32'0 0.0
2014-Jul-31 13:31N 53°35' E 008°32'0 0.0
2014-Jul-31 12:31N 53°35' E 008°32'0 0.0
2014-Jul-31 11:31N 53°35' E 008°32'0 0.0
2014-Jul-31 10:31N 53°35' E 008°32'0 0.0
2014-Jul-31 09:31N 53°35' E 008°32'0 0.0
2014-Jul-31 08:31N 53°35' E 008°32'0 0.0
2014-Jul-31 07:31N 53°35' E 008°32'0 0.0
2014-Jul-31 06:31N 53°35' E 008°32'0 0.0
2014-Jul-31 05:31N 53°35' E 008°32'0 0.0
2014-Jul-31 04:31N 53°35' E 008°32'0 0.0
2014-Jul-31 03:31N 53°35' E 008°32'4 4.2
2014-Jul-31 02:33N 53°38' E 008°28'1717.2
2014-Jul-31 01:33N 53°49' E 008°06'5513.1
2014-Jul-30 21:23N 53°47' E 006°34'1214.5
2014-Jul-30 20:31N 53°44' E 006°14'1515.1
2014-Jul-30 19:33N 53°39' E 005°51'1313.4
2014-Jul-30 18:33N 53°35' E 005°29'1514.9
2014-Jul-30 17:33N 53°30' E 005°05'1414.1
2014-Jul-30 16:33N 53°24' E 004°44'4313.7
2014-Jul-30 13:26N 52°47' E 004°10'2015.6
2014-Jul-30 12:11N 52°32' E 003°48'1315.3
2014-Jul-30 11:21N 52°23' E 003°33'3813.7
2014-Jul-30 08:33N 51°47' E 003°15'1312.8
2014-Jul-30 07:32N 51°34' E 003°10'1010.6
2014-Jul-30 06:33N 51°24' E 003°06'1717.4
2014-Jul-30 05:33N 51°26' E 003°33'1111.4
2014-Jul-30 04:33N 51°21' E 003°50'8 8.2
2014-Jul-30 03:33N 51°23' E 004°03'9 9.2
2014-Jul-30 02:34N 51°21' E 004°17'0 0.2
2014-Jul-30 01:33N 51°21' E 004°17'2 1.9
2014-Jul-30 00:33N 51°20' E 004°20'1 0.5
2014-Jul-29 23:33N 51°20' E 004°21'0 0.0
2014-Jul-29 22:32N 51°20' E 004°21'0 0.0
2014-Jul-29 21:32N 51°20' E 004°21'0 0.0
2014-Jul-29 20:29N 51°20' E 004°21'0 0.0
2014-Jul-29 19:32N 51°20' E 004°21'0 0.0
2014-Jul-29 18:29N 51°20' E 004°21'0 0.0
2014-Jul-29 17:32N 51°20' E 004°21'0 0.0
2014-Jul-29 16:32N 51°20' E 004°21'0 0.0
2014-Jul-29 15:32N 51°20' E 004°21'0 0.0
2014-Jul-29 14:32N 51°20' E 004°21'0 0.0
2014-Jul-29 13:31N 51°20' E 004°21'0 0.0
2014-Jul-29 12:31N 51°20' E 004°21'0 0.0
2014-Jul-29 11:31N 51°20' E 004°21'0 0.0
2014-Jul-29 10:31N 51°20' E 004°21'0 0.0
2014-Jul-29 09:31N 51°20' E 004°21'0 0.0
2014-Jul-29 08:31N 51°20' E 004°21'0 0.0
2014-Jul-29 07:28N 51°20' E 004°21'0 0.0
2014-Jul-29 06:31N 51°20' E 004°21'0 0.0
2014-Jul-29 05:31N 51°20' E 004°21'0 0.0
2014-Jul-29 04:31N 51°20' E 004°21'0 0.0
2014-Jul-29 03:31N 51°20' E 004°21'0 0.0
2014-Jul-29 02:31N 51°20' E 004°21'0 0.0
2014-Jul-29 01:31N 51°20' E 004°21'0 0.0
2014-Jul-29 00:31N 51°20' E 004°21'0 0.0
2014-Jul-28 23:28N 51°20' E 004°21'0 0.0
2014-Jul-28 22:31N 51°20' E 004°21'0 0.0
2014-Jul-28 21:31N 51°20' E 004°21'0 0.0
2014-Jul-28 20:31N 51°20' E 004°21'0 0.0
2014-Jul-28 19:31N 51°20' E 004°21'0 0.0
2014-Jul-28 18:28N 51°20' E 004°21'1 0.9
2014-Jul-28 17:33N 51°20' E 004°19'2 1.7
2014-Jul-28 16:33N 51°21' E 004°17'1 0.9
2014-Jul-28 15:34N 51°21' E 004°16'9 8.9
2014-Jul-28 14:33N 51°23' E 004°02'1010.3
2014-Jul-28 13:33N 51°22' E 003°46'1414.4
2014-Jul-28 12:33N 51°24' E 003°23'1817.6
2014-Jul-28 11:33N 51°25' E 002°55'1313.4
2014-Jul-28 10:33N 51°22' E 002°34'1818.0
2014-Jul-28 09:33N 51°14' E 002°08'1818.3
2014-Jul-28 08:33N 51°04' E 001°44'1716.9
2014-Jul-28 07:33N 50°52' E 001°26'3416.7
2014-Jul-28 05:33N 50°28' E 000°48'1818.1
2014-Jul-28 04:33N 50°24' E 000°21'82617.7
2014-Jul-26 06:00N 45°42' W 019°00'43318.1 160 / 151020.010.8 18.516.2
2014-Jul-25 06:00N 42°54' W 028°18'   200 / 111005.5 2.2 19.016.7
2014-Jul-22 18:00N 35°06' W 048°06'   250 / 201022.510.8 28.020.9
Track history (hours):
 
Tides and Currents Weather Stations Pressure Air Temp Water Temp Dewpoint Dewpoint Depression Visibility Wind Speed Wind Dir Waves Ship Positions

Seattle Express

Last reported at 2014-Aug-01 07:33 UTC. Time now 2014-Aug-01 07:46 UTC.
Position N 53°07' E 004°17'.

Length 264.1 m; beam 32.3 m; draft 12.5 m.

Type: Ship (hazmat cat A). MMSI: 636090860.

Date/timePositionNaut miles runAvg speedWind from/ knotsBaromVisibWave heightAir tempDewpointWater temp
2014-Aug-01 07:33N 53°07' E 004°17'1614.9
2014-Aug-01 06:30N 53°20' E 004°31'1515.4
2014-Aug-01 05:33N 53°30' E 004°48'1817.6
2014-Aug-01 04:33N 53°37' E 005°15'1817.8
2014-Aug-01 03:33N 53°43' E 005°44'1817.6
2014-Aug-01 02:33N 53°48' E 006°12'1716.9
2014-Aug-01 01:33N 53°53' E 006°40'2216.2
2014-Aug-01 00:10N 53°57' E 007°17'1015.7
2014-Jul-31 23:33N 53°59' E 007°33'1412.0
2014-Jul-31 22:23N 53°52' E 007°54'1012.5
2014-Jul-31 21:33N 53°47' E 008°09'1716.5
2014-Jul-31 20:33N 53°36' E 008°30'2 2.2
2014-Jul-31 19:33N 53°35' E 008°32'0 0.0
2014-Jul-31 18:31N 53°35' E 008°32'0 0.0
2014-Jul-31 17:31N 53°35' E 008°32'0 0.0
2014-Jul-31 16:31N 53°35' E 008°32'0 0.0
2014-Jul-31 15:31N 53°35' E 008°32'0 0.0
2014-Jul-31 14:31N 53°35' E 008°32'0 0.0
2014-Jul-31 13:31N 53°35' E 008°32'0 0.0
2014-Jul-31 12:31N 53°35' E 008°32'0 0.0
2014-Jul-31 11:31N 53°35' E 008°32'0 0.0
2014-Jul-31 10:31N 53°35' E 008°32'0 0.0
2014-Jul-31 09:31N 53°35' E 008°32'0 0.0
2014-Jul-31 08:31N 53°35' E 008°32'0 0.0
2014-Jul-31 07:31N 53°35' E 008°32'0 0.0
2014-Jul-31 06:31N 53°35' E 008°32'0 0.0
2014-Jul-31 05:31N 53°35' E 008°32'0 0.0
2014-Jul-31 04:31N 53°35' E 008°32'0 0.0
2014-Jul-31 03:31N 53°35' E 008°32'4 4.2
2014-Jul-31 02:33N 53°38' E 008°28'1717.2
2014-Jul-31 01:33N 53°49' E 008°06'5513.1
2014-Jul-30 21:23N 53°47' E 006°34'1214.5
2014-Jul-30 20:31N 53°44' E 006°14'1515.1
2014-Jul-30 19:33N 53°39' E 005°51'1313.4
2014-Jul-30 18:33N 53°35' E 005°29'1514.9
2014-Jul-30 17:33N 53°30' E 005°05'1414.1
2014-Jul-30 16:33N 53°24' E 004°44'4313.7
2014-Jul-30 13:26N 52°47' E 004°10'2015.6
2014-Jul-30 12:11N 52°32' E 003°48'1315.3
2014-Jul-30 11:21N 52°23' E 003°33'3813.7
2014-Jul-30 08:33N 51°47' E 003°15'1312.8
2014-Jul-30 07:32N 51°34' E 003°10'1010.6
2014-Jul-30 06:33N 51°24' E 003°06'1717.4
2014-Jul-30 05:33N 51°26' E 003°33'1111.4
2014-Jul-30 04:33N 51°21' E 003°50'8 8.2
2014-Jul-30 03:33N 51°23' E 004°03'9 9.2
2014-Jul-30 02:34N 51°21' E 004°17'0 0.2
2014-Jul-30 01:33N 51°21' E 004°17'2 1.9
2014-Jul-30 00:33N 51°20' E 004°20'1 0.5
2014-Jul-29 23:33N 51°20' E 004°21'0 0.0
2014-Jul-29 22:32N 51°20' E 004°21'0 0.0
2014-Jul-29 21:32N 51°20' E 004°21'0 0.0
2014-Jul-29 20:29N 51°20' E 004°21'0 0.0
2014-Jul-29 19:32N 51°20' E 004°21'0 0.0
2014-Jul-29 18:29N 51°20' E 004°21'0 0.0
2014-Jul-29 17:32N 51°20' E 004°21'0 0.0
2014-Jul-29 16:32N 51°20' E 004°21'0 0.0
2014-Jul-29 15:32N 51°20' E 004°21'0 0.0
2014-Jul-29 14:32N 51°20' E 004°21'0 0.0
2014-Jul-29 13:31N 51°20' E 004°21'0 0.0
2014-Jul-29 12:31N 51°20' E 004°21'0 0.0
2014-Jul-29 11:31N 51°20' E 004°21'0 0.0
2014-Jul-29 10:31N 51°20' E 004°21'0 0.0
2014-Jul-29 09:31N 51°20' E 004°21'0 0.0
2014-Jul-29 08:31N 51°20' E 004°21'0 0.0
2014-Jul-29 07:28N 51°20' E 004°21'0 0.0
2014-Jul-29 06:31N 51°20' E 004°21'0 0.0
2014-Jul-29 05:31N 51°20' E 004°21'0 0.0
2014-Jul-29 04:31N 51°20' E 004°21'0 0.0
2014-Jul-29 03:31N 51°20' E 004°21'0 0.0
2014-Jul-29 02:31N 51°20' E 004°21'0 0.0
2014-Jul-29 01:31N 51°20' E 004°21'0 0.0
2014-Jul-29 00:31N 51°20' E 004°21'0 0.0
2014-Jul-28 23:28N 51°20' E 004°21'0 0.0
2014-Jul-28 22:31N 51°20' E 004°21'0 0.0
2014-Jul-28 21:31N 51°20' E 004°21'0 0.0
2014-Jul-28 20:31N 51°20' E 004°21'0 0.0
2014-Jul-28 19:31N 51°20' E 004°21'0 0.0
2014-Jul-28 18:28N 51°20' E 004°21'1 0.9
2014-Jul-28 17:33N 51°20' E 004°19'2 1.7
2014-Jul-28 16:33N 51°21' E 004°17'1 0.9
2014-Jul-28 15:34N 51°21' E 004°16'9 8.9
2014-Jul-28 14:33N 51°23' E 004°02'1010.3
2014-Jul-28 13:33N 51°22' E 003°46'1414.4
2014-Jul-28 12:33N 51°24' E 003°23'1817.6
2014-Jul-28 11:33N 51°25' E 002°55'1313.4
2014-Jul-28 10:33N 51°22' E 002°34'1818.0
2014-Jul-28 09:33N 51°14' E 002°08'1818.3
2014-Jul-28 08:33N 51°04' E 001°44'1716.9
2014-Jul-28 07:33N 50°52' E 001°26'3416.7
2014-Jul-28 05:33N 50°28' E 000°48'1818.1
2014-Jul-28 04:33N 50°24' E 000°21'82617.7
2014-Jul-26 06:00N 45°42' W 019°00'43318.1 160 / 151020.010.8 18.516.2
2014-Jul-25 06:00N 42°54' W 028°18'   200 / 111005.5 2.2 19.016.7
2014-Jul-22 18:00N 35°06' W 048°06'   250 / 201022.510.8 28.020.9

Dump ship's entire track history